createdAt,value
2019-02-08T00:02:19.959Z,7.00
2019-02-08T00:08:28.997Z,7.00
2019-02-08T00:11:31.790Z,6.90
2019-02-08T00:14:02.508Z,6.90
2019-02-08T00:16:36.269Z,6.90
2019-02-08T00:22:56.850Z,6.70
2019-02-08T00:26:00.554Z,6.70
2019-02-08T00:28:43.072Z,6.70
2019-02-08T00:31:24.220Z,6.60
2019-02-08T00:34:06.025Z,6.60
2019-02-08T00:36:47.271Z,6.60
2019-02-08T00:39:31.951Z,6.60
2019-02-08T00:42:14.200Z,6.60
2019-02-08T00:44:56.307Z,6.60
2019-02-08T00:47:39.513Z,6.50
2019-02-08T00:50:22.313Z,6.50
2019-02-08T00:53:04.566Z,6.60
2019-02-08T00:55:52.410Z,6.50
2019-02-08T00:58:36.877Z,6.60
2019-02-08T01:01:28.611Z,6.60
2019-02-08T01:04:13.155Z,6.70
2019-02-08T01:06:54.865Z,6.60
2019-02-08T01:09:39.322Z,6.60
2019-02-08T01:12:23.670Z,6.70
2019-02-08T01:15:06.113Z,6.60
2019-02-08T01:17:47.930Z,6.60
2019-02-08T01:20:29.472Z,6.60
2019-02-08T01:23:11.634Z,6.70
2019-02-08T01:25:52.602Z,6.60
2019-02-08T01:29:01.163Z,6.70
2019-02-08T01:31:44.011Z,6.60
2019-02-08T01:34:25.796Z,6.70
2019-02-08T01:37:06.918Z,6.70
2019-02-08T01:39:48.337Z,6.70
2019-02-08T01:42:31.304Z,6.70
2019-02-08T01:45:13.769Z,6.70
2019-02-08T01:47:55.806Z,6.60
2019-02-08T01:50:39.977Z,6.70
2019-02-08T01:53:23.857Z,6.70
2019-02-08T01:56:06.725Z,6.60
2019-02-08T01:58:49.993Z,6.60
2019-02-08T02:01:32.713Z,6.70
2019-02-08T02:04:14.278Z,6.70
2019-02-08T02:06:56.234Z,6.70
2019-02-08T02:09:41.242Z,6.70
2019-02-08T02:12:23.765Z,6.80
2019-02-08T02:15:07.860Z,6.70
2019-02-08T02:17:50.541Z,6.70
2019-02-08T02:20:31.895Z,6.70
2019-02-08T02:23:16.288Z,6.70
2019-02-08T02:26:00.324Z,6.80
2019-02-08T02:28:41.786Z,6.80
2019-02-08T02:31:23.066Z,6.80
2019-02-08T02:34:05.546Z,6.80
2019-02-08T02:36:47.423Z,6.90
2019-02-08T02:39:29.202Z,6.90
2019-02-08T02:42:14.317Z,6.80
2019-02-08T02:44:45.384Z,6.90
2019-02-08T02:47:34.674Z,6.90
2019-02-08T02:50:43.060Z,7.00
2019-02-08T02:53:24.696Z,6.90
2019-02-08T02:56:08.837Z,7.00
2019-02-08T02:58:50.656Z,7.00
2019-02-08T03:01:34.598Z,7.00
2019-02-08T03:04:19.006Z,7.00
2019-02-08T03:07:02.062Z,7.00
2019-02-08T03:09:43.543Z,7.00
2019-02-08T03:12:25.092Z,7.00
2019-02-08T03:15:06.545Z,7.00
2019-02-08T03:17:49.221Z,7.10
2019-02-08T03:20:30.366Z,7.10
2019-02-08T03:23:12.058Z,7.10
2019-02-08T03:25:53.582Z,7.00
2019-02-08T03:28:35.522Z,6.90
2019-02-08T03:31:17.351Z,6.80
2019-02-08T03:33:59.399Z,6.70
2019-02-08T03:36:41.092Z,6.60
2019-02-08T03:39:22.425Z,6.50
2019-02-08T03:42:04.111Z,6.40
2019-02-08T03:44:45.650Z,6.40
2019-02-08T03:47:29.903Z,6.30
2019-02-08T03:50:01.483Z,6.30
2019-02-08T03:52:32.767Z,6.30
2019-02-08T03:55:03.552Z,6.30
2019-02-08T03:57:34.556Z,6.40
2019-02-08T04:00:08.808Z,6.40
2019-02-08T04:02:39.497Z,6.40
2019-02-08T04:05:21.567Z,6.40
2019-02-08T04:08:03.533Z,6.40
2019-02-08T04:10:45.077Z,6.40
2019-02-08T04:13:26.713Z,6.50
2019-02-08T04:16:08.889Z,6.50
2019-02-08T04:18:50.053Z,6.50
2019-02-08T04:21:31.374Z,6.50
2019-02-08T04:24:14.529Z,6.50
2019-02-08T04:26:56.996Z,6.40
2019-02-08T04:29:40.461Z,6.50
2019-02-08T04:32:22.354Z,6.50
2019-02-08T04:35:03.832Z,6.60
2019-02-08T04:37:45.572Z,6.50
2019-02-08T04:40:27.019Z,6.60
2019-02-08T04:43:08.246Z,6.50
2019-02-08T04:45:50.979Z,6.60
2019-02-08T04:48:32.571Z,6.60
2019-02-08T04:51:13.986Z,6.60
2019-02-08T04:53:55.352Z,6.70
2019-02-08T04:56:38.687Z,6.70
2019-02-08T04:59:20.367Z,6.70
2019-02-08T05:02:02.149Z,6.70
2019-02-08T05:04:43.659Z,6.80
2019-02-08T05:07:25.313Z,6.80
2019-02-08T05:10:06.563Z,6.80
2019-02-08T05:12:50.791Z,6.80
2019-02-08T05:15:32.373Z,6.80
2019-02-08T05:20:53.277Z,6.80
2019-02-08T05:23:36.339Z,6.80
2019-02-08T05:26:18.329Z,6.80
2019-02-08T05:28:49.095Z,6.80
2019-02-08T05:31:20.488Z,6.80
2019-02-08T05:33:51.716Z,6.70
2019-02-08T05:36:25.170Z,6.70
2019-02-08T05:38:55.321Z,6.70
2019-02-08T05:41:26.118Z,6.60
2019-02-08T05:50:17.425Z,6.70
2019-02-08T05:52:47.889Z,6.70
2019-02-08T05:55:37.324Z,6.70
2019-02-08T05:58:26.607Z,6.70
2019-02-08T06:01:08.706Z,6.70
2019-02-08T06:03:58.290Z,6.70
2019-02-08T06:06:39.599Z,6.70
2019-02-08T06:09:21.390Z,6.80
2019-02-08T06:12:03.678Z,6.80
2019-02-08T06:14:47.753Z,6.80
2019-02-08T06:17:34.132Z,6.80
2019-02-08T06:20:16.341Z,6.90
2019-02-08T06:22:58.087Z,6.90
2019-02-08T06:25:28.304Z,6.90
2019-02-08T06:28:29.098Z,6.90
2019-02-08T06:31:10.686Z,6.90
2019-02-08T06:33:53.769Z,6.90
2019-02-08T06:36:36.279Z,6.90
2019-02-08T06:39:18.108Z,7.00
2019-02-08T06:42:02.269Z,6.90
2019-02-08T06:44:44.174Z,6.90
2019-02-08T06:47:25.431Z,6.90
2019-02-08T06:50:07.077Z,6.90
2019-02-08T06:52:48.563Z,6.90
2019-02-08T06:55:30.841Z,6.90
2019-02-08T06:58:31.149Z,7.00
2019-02-08T07:01:32.690Z,7.00
2019-02-08T07:04:49.535Z,7.00
2019-02-08T07:07:28.353Z,7.10
2019-02-08T07:10:28.231Z,7.00
2019-02-08T07:13:36.153Z,7.00
2019-02-08T07:16:42.120Z,7.10
2019-02-08T07:23:04.566Z,7.30
2019-02-08T07:29:34.124Z,7.40
2019-02-08T07:32:36.267Z,7.50
2019-02-08T07:35:28.268Z,7.60
2019-02-08T07:38:36.490Z,7.70
2019-02-08T07:41:37.344Z,7.80
2019-02-08T07:48:09.991Z,7.80
2019-02-08T07:51:18.261Z,7.80
2019-02-08T08:00:32.586Z,7.90
2019-02-08T08:03:41.107Z,7.90
2019-02-08T08:06:37.946Z,8.00
2019-02-08T08:12:18.727Z,8.00
2019-02-08T08:18:41.458Z,8.00
2019-02-08T08:21:41.989Z,8.00
2019-02-08T08:24:37.328Z,8.00
2019-02-08T08:27:28.679Z,8.10
2019-02-08T08:30:15.364Z,8.10
2019-02-08T08:33:16.372Z,8.10
2019-02-08T08:35:57.681Z,8.10
2019-02-08T08:38:39.463Z,8.20
2019-02-08T08:41:21.213Z,8.20
2019-02-08T08:44:02.851Z,8.10
2019-02-08T08:46:44.810Z,8.20
2019-02-08T08:49:28.024Z,8.20
2019-02-08T08:52:09.997Z,8.20
2019-02-08T08:54:54.332Z,8.30
2019-02-08T08:57:37.138Z,8.40
2019-02-08T09:00:21.121Z,8.40
2019-02-08T09:03:03.089Z,8.40
2019-02-08T09:05:48.288Z,8.50
2019-02-08T09:08:29.797Z,8.50
2019-02-08T09:11:13.229Z,8.60
2019-02-08T09:13:54.623Z,8.60
2019-02-08T09:16:36.303Z,8.70
2019-02-08T09:19:18.006Z,8.70
2019-02-08T09:21:59.832Z,8.80
2019-02-08T09:24:41.507Z,8.80
2019-02-08T09:27:25.088Z,8.80
2019-02-08T09:30:09.773Z,8.80
2019-02-08T09:32:51.571Z,8.90
2019-02-08T09:35:33.560Z,9.00
2019-02-08T09:38:18.832Z,9.10
2019-02-08T09:41:26.860Z,9.10
2019-02-08T09:44:34.910Z,9.20
2019-02-08T09:47:43.876Z,9.30
2019-02-08T09:50:27.281Z,9.40
2019-02-08T09:53:09.415Z,9.60
2019-02-08T09:55:57.624Z,9.60
2019-02-08T09:58:34.378Z,9.60
2019-02-08T10:01:55.264Z,9.50
2019-02-08T10:05:06.354Z,9.50
2019-02-08T10:08:11.013Z,9.50
2019-02-08T10:14:18.916Z,9.50
2019-02-08T10:17:31.003Z,9.50
2019-02-08T10:20:39.285Z,9.50
2019-02-08T10:23:48.762Z,9.50
2019-02-08T10:26:36.457Z,9.50
2019-02-08T10:29:20.877Z,9.60
2019-02-08T10:32:05.465Z,9.70
2019-02-08T10:35:18.874Z,9.70
2019-02-08T10:37:39.283Z,9.80
2019-02-08T11:04:33.346Z,9.90
2019-02-08T11:10:36.829Z,9.90
2019-02-08T11:22:56.314Z,10.20
2019-02-08T11:25:32.906Z,10.30
2019-02-08T11:28:17.685Z,10.30
2019-02-08T11:30:55.077Z,10.30
2019-02-08T11:33:34.356Z,10.40
2019-02-08T11:37:20.400Z,10.40
2019-02-08T11:44:48.839Z,10.50
2019-02-08T12:28:23.710Z,9.90
2019-02-08T13:28:59.892Z,9.30
2019-02-08T13:40:49.314Z,9.30
2019-02-08T13:43:55.491Z,9.40
2019-02-08T13:53:02.585Z,9.30
2019-02-08T14:17:25.303Z,9.30
2019-02-08T14:29:15.084Z,9.50
2019-02-08T14:50:36.239Z,9.70
2019-02-08T15:12:04.138Z,9.60
2019-02-08T15:26:50.987Z,9.50
2019-02-08T15:29:39.651Z,9.50
2019-02-08T15:32:10.867Z,9.50
2019-02-08T15:34:57.389Z,9.50
2019-02-08T16:03:17.138Z,9.60
2019-02-08T16:06:06.218Z,9.60
2019-02-08T16:12:34.066Z,9.50
2019-02-08T16:15:21.253Z,9.60
2019-02-08T16:18:00.744Z,9.60
2019-02-08T16:20:45.679Z,9.50
2019-02-08T16:41:57.675Z,9.50
2019-02-08T16:48:43.874Z,9.60
2019-02-08T17:05:47.208Z,9.80
2019-02-08T18:06:46.105Z,10.30
2019-02-08T18:15:59.828Z,10.60
2019-02-08T19:00:42.538Z,10.50
2019-02-08T19:06:29.255Z,10.50
2019-02-08T19:09:12.606Z,10.60
2019-02-08T19:11:56.290Z,10.60
2019-02-08T19:15:04.308Z,10.50
2019-02-08T19:17:26.929Z,10.50
2019-02-08T19:29:48.365Z,10.30
2019-02-08T19:32:30.520Z,10.30
2019-02-08T19:41:26.753Z,10.70
2019-02-08T19:44:37.324Z,10.60
2019-02-08T19:47:00.919Z,10.50
2019-02-08T19:49:55.051Z,10.40
2019-02-08T19:52:26.504Z,10.30
2019-02-08T19:55:03.517Z,10.30
2019-02-08T19:57:42.405Z,10.20
2019-02-08T20:00:22.881Z,10.30
2019-02-08T20:02:53.002Z,10.30
2019-02-08T20:05:29.251Z,10.30
2019-02-08T20:08:16.107Z,10.20
2019-02-08T20:11:01.555Z,10.30
2019-02-08T20:13:41.411Z,10.30
2019-02-08T20:16:14.374Z,10.20
2019-02-08T20:19:05.827Z,10.20
2019-02-08T20:21:43.276Z,10.20
2019-02-08T20:24:34.586Z,10.30
2019-02-08T20:27:19.552Z,10.30
2019-02-08T20:29:55.667Z,10.30
2019-02-08T20:32:41.078Z,10.30
2019-02-08T20:35:33.641Z,10.30
2019-02-08T20:38:20.414Z,10.30
2019-02-08T20:41:03.227Z,10.30
2019-02-08T20:43:36.303Z,10.40
2019-02-08T20:46:12.679Z,10.40
2019-02-08T20:48:52.781Z,10.50
2019-02-08T20:51:29.548Z,10.60
2019-02-08T20:54:03.598Z,10.60
2019-02-08T20:56:44.646Z,10.60
2019-02-08T20:59:30.395Z,10.50
2019-02-08T21:02:12.414Z,10.50
2019-02-08T21:04:45.670Z,10.60
2019-02-08T21:07:22.507Z,10.60
2019-02-08T21:09:55.375Z,10.50
2019-02-08T21:12:29.752Z,10.30
2019-02-08T21:15:03.922Z,10.10
2019-02-08T21:17:43.380Z,10.00
2019-02-08T21:20:22.203Z,9.90
2019-02-08T21:22:57.877Z,10.00
2019-02-08T21:25:39.032Z,10.00
2019-02-08T21:28:20.544Z,10.10
2019-02-08T21:30:52.260Z,10.20
2019-02-08T21:33:30.209Z,10.10
2019-02-08T21:36:17.079Z,10.10
2019-02-08T21:38:53.682Z,10.10
2019-02-08T21:41:38.936Z,10.10
2019-02-08T21:44:29.813Z,10.00
2019-02-08T21:47:15.831Z,10.10
2019-02-08T21:50:32.170Z,10.00
2019-02-08T21:59:58.209Z,10.10
2019-02-08T22:02:42.508Z,10.20
2019-02-08T22:05:24.668Z,10.20
2019-02-08T22:08:06.960Z,10.10
2019-02-08T22:11:09.561Z,10.20
2019-02-08T22:13:55.192Z,10.10
2019-02-08T22:17:02.642Z,10.20
2019-02-08T22:19:29.784Z,10.10
2019-02-08T22:22:14.835Z,10.00
2019-02-08T22:24:57.839Z,10.00
2019-02-08T22:27:41.529Z,10.00
2019-02-08T22:30:24.875Z,10.00
2019-02-08T22:41:58.302Z,10.10
2019-02-08T22:44:42.098Z,10.10
2019-02-08T22:56:48.440Z,10.20
2019-02-08T22:59:00.780Z,10.20
2019-02-08T23:04:52.362Z,10.00
2019-02-08T23:08:05.987Z,10.00
2019-02-08T23:10:15.791Z,10.00
2019-02-08T23:21:27.626Z,9.90
2019-02-08T23:24:11.154Z,10.10
2019-02-08T23:26:54.539Z,10.20
2019-02-08T23:32:29.249Z,10.10
2019-02-08T23:38:20.408Z,10.10
2019-02-08T23:44:09.412Z,10.10
2019-02-08T23:49:21.983Z,10.30
2019-02-08T23:52:21.317Z,10.20
2019-02-08T23:55:05.278Z,10.10
2019-02-08T23:57:49.088Z,10.00
